Time;durP1;ratioP1;P1;durP2;ratioP2;P2;SDS_P1;SDS_P2;PMS_P1;PMS_P2;Temp;Humidity;BMP_temperature;BMP_pressure;BME280_temperature;BME280_humidity;BME280_pressure;Samples;Min_cycle;Max_cycle;Signal;HPM_P1;HPM_P2
2021/12/15 00:01:32;;;;;;;53.80;23.33;;;;;;;8.08;96.04;102848.47;5001758;28;20128;-73
2021/12/15 00:03:58;;;;;;;53.72;23.65;;;;;;;8.09;95.80;102846.63;5007090;28;20030;-76
2021/12/15 00:06:27;;;;;;;52.38;23.67;;;;;;;8.07;95.84;102846.69;4995030;28;20548;-77
2021/12/15 00:08:55;;;;;;;52.17;25.08;;;;;;;8.05;95.76;102842.25;4989482;28;20125;-77
2021/12/15 00:11:32;;;;;;;53.38;23.77;;;;;;;8.05;96.14;102842.25;5000897;28;20454;-73
2021/12/15 00:13:59;;;;;;;54.97;24.45;;;;;;;8.05;96.39;102844.94;4989924;28;20740;-75
2021/12/15 00:16:26;;;;;;;56.03;24.23;;;;;;;8.02;96.20;102832.41;4995729;28;20026;-76
2021/12/15 00:18:52;;;;;;;58.00;23.25;;;;;;;8.00;96.42;102831.53;4999907;28;20033;-73
2021/12/15 00:21:19;;;;;;;55.58;25.33;;;;;;;8.03;96.30;102836.88;4988292;28;20030;-75
2021/12/15 00:23:46;;;;;;;54.85;24.33;;;;;;;8.04;96.10;102837.75;4996196;28;20145;-75
2021/12/15 00:26:12;;;;;;;57.20;23.13;;;;;;;8.00;96.04;102826.09;4991262;28;20061;-73
2021/12/15 00:28:38;;;;;;;59.88;25.67;;;;;;;8.03;96.23;102831.44;5005080;28;20061;-75
2021/12/15 00:31:05;;;;;;;58.47;25.90;;;;;;;8.00;96.08;102828.81;5002685;28;20035;-75
2021/12/15 00:33:31;;;;;;;60.58;25.83;;;;;;;8.02;96.29;102831.47;5003184;28;20415;-75
2021/12/15 00:35:56;;;;;;;57.45;24.38;;;;;;;8.02;96.47;102821.56;5003470;28;20041;-73
2021/12/15 00:38:23;;;;;;;52.28;23.02;;;;;;;8.04;96.38;102830.50;4994158;28;20026;-75
2021/12/15 00:40:49;;;;;;;53.70;22.45;;;;;;;8.04;96.20;102830.50;5001445;28;20029;-75
2021/12/15 00:43:14;;;;;;;62.53;25.38;;;;;;;8.02;96.12;102826.06;5002765;28;20037;-76
2021/12/15 00:45:40;;;;;;;52.83;23.85;;;;;;;8.01;96.34;102819.75;4998563;28;20034;-75
2021/12/15 00:48:05;;;;;;;64.00;24.55;;;;;;;8.04;95.93;102819.66;5006981;28;20022;-75
2021/12/15 00:50:35;;;;;;;57.42;22.92;;;;;;;8.05;95.94;102828.69;5003220;28;20082;-75
2021/12/15 00:53:02;;;;;;;59.25;23.52;;;;;;;8.04;95.88;102825.09;4999803;28;20116;-73
2021/12/15 00:55:28;;;;;;;55.72;23.25;;;;;;;8.04;96.00;102816.97;5002644;28;20084;-74
2021/12/15 00:57:54;;;;;;;53.08;24.13;;;;;;;8.05;95.88;102828.69;5003635;28;20027;-76
2021/12/15 01:00:24;;;;;;;52.35;22.92;;;;;;;8.04;95.77;102824.19;4996701;28;20034;-78
2021/12/15 01:02:51;;;;;;;55.72;23.23;;;;;;;8.05;96.45;102823.25;4997962;28;20026;-77
2021/12/15 01:05:19;;;;;;;55.78;23.08;;;;;;;8.04;96.03;102818.78;4998570;28;20111;-77
2021/12/15 01:07:46;;;;;;;51.80;21.77;;;;;;;8.02;95.88;102823.34;5003176;28;20026;-78
2021/12/15 01:10:16;;;;;;;59.22;22.58;;;;;;;8.04;96.20;102832.34;4997013;28;20037;-76
2021/12/15 01:20:53;;;;;;;51.63;22.38;;;;;;;8.05;96.23;102839.53;4988654;28;20068;-75
2021/12/15 01:23:22;;;;;;;52.58;22.23;;;;;;;8.04;96.07;102844.06;4999815;28;20370;-77
2021/12/15 01:25:54;;;;;;;60.92;22.70;;;;;;;8.02;96.09;102831.47;5000276;28;20018;-73
2021/12/15 01:28:21;;;;;;;54.97;22.17;;;;;;;8.03;95.88;102827.84;5004143;28;20470;-76
2021/12/15 01:30:47;;;;;;;48.03;21.05;;;;;;;8.02;95.86;102824.25;5001019;28;20030;-77
2021/12/15 01:33:14;;;;;;;55.65;22.60;;;;;;;8.02;96.02;102835.09;5004984;28;20058;-76
2021/12/15 01:35:47;;;;;;;56.47;22.42;;;;;;;8.02;96.27;102826.97;4998295;28;20041;-76
2021/12/15 01:38:14;;;;;;;52.97;23.77;;;;;;;8.01;95.92;102827.00;4994636;28;20033;-78
2021/12/15 01:40:43;;;;;;;58.15;21.25;;;;;;;8.00;96.50;102828.81;5003483;28;20034;-75
2021/12/15 01:43:23;;;;;;;59.60;24.45;;;;;;;8.02;95.86;102835.09;4996991;28;20045;-75
2021/12/15 01:48:42;;;;;;;55.60;22.38;;;;;;;8.00;96.37;102834.25;4991723;28;20037;-76
2021/12/15 01:51:10;;;;;;;58.58;23.67;;;;;;;8.00;95.77;102836.94;5006133;28;20038;-77
2021/12/15 01:53:36;;;;;;;59.03;23.60;;;;;;;8.02;96.31;102839.59;4993357;28;20046;-75
2021/12/15 01:56:03;;;;;;;60.53;24.13;;;;;;;8.00;96.42;102836.94;5002134;28;20137;-77
2021/12/15 01:58:29;;;;;;;53.67;24.00;;;;;;;8.00;96.22;102838.78;4994416;28;20022;-76
2021/12/15 02:00:59;;;;;;;52.40;22.30;;;;;;;8.01;96.21;102843.25;5004661;28;20040;-76
2021/12/15 02:03:26;;;;;;;58.70;23.08;;;;;;;8.00;96.04;102841.50;5003765;28;20048;-76
2021/12/15 02:05:52;;;;;;;56.65;22.90;;;;;;;8.01;96.36;102845.97;4993606;28;20690;-78
2021/12/15 02:08:17;;;;;;;53.63;22.45;;;;;;;7.98;96.29;102851.50;4997145;28;20026;-76
2021/12/15 02:10:44;;;;;;;57.63;24.13;;;;;;;8.01;96.16;102857.69;5006244;28;20052;-77
2021/12/15 02:13:14;;;;;;;61.35;23.92;;;;;;;8.02;96.31;102853.16;4991000;28;20115;-74
2021/12/15 02:15:47;;;;;;;57.83;23.75;;;;;;;8.03;96.04;102857.66;4991540;28;20105;-73
2021/12/15 02:18:14;;;;;;;;;;;;;;;8.05;95.81;102861.22;5004692;28;20029;-74
2021/12/15 02:20:47;;;;;;;56.72;23.08;;;;;;;8.03;96.08;102857.66;5006300;28;19909;-77
2021/12/15 02:23:17;;;;;;;58.75;22.65;;;;;;;8.02;96.26;102864.91;5008946;28;20052;-77
2021/12/15 02:25:43;;;;;;;60.15;23.42;;;;;;;7.97;96.25;102847.88;5004938;28;20025;-74
2021/12/15 02:28:09;;;;;;;64.93;23.35;;;;;;;8.02;96.50;102862.22;4996261;28;20041;-74
2021/12/15 02:33:45;;;;;;;61.70;23.42;;;;;;;8.04;96.02;102859.44;4994560;28;20137;-74
2021/12/15 02:38:42;;;;;;;57.45;21.75;;;;;;;8.05;96.03;102861.22;5002794;28;20081;-76
2021/12/15 02:41:20;;;;;;;59.15;23.75;;;;;;;8.04;95.98;102863.03;4996751;28;20123;-77
2021/12/15 02:43:54;;;;;;;62.50;23.17;;;;;;;8.05;95.96;102855.78;5004469;28;20030;-77
2021/12/15 02:46:20;;;;;;;61.25;23.08;;;;;;;8.03;96.06;102850.44;5003470;28;20030;-77
2021/12/15 02:48:45;;;;;;;65.43;23.15;;;;;;;8.02;96.25;102851.38;4993892;28;20077;-75
2021/12/15 02:51:11;;;;;;;68.88;25.30;;;;;;;8.05;96.23;102853.09;4999057;28;20126;-76
2021/12/15 02:53:37;;;;;;;63.08;23.67;;;;;;;8.03;96.09;102850.44;5009026;28;20030;-74
2021/12/15 02:56:02;;;;;;;54.30;22.63;;;;;;;8.03;96.34;102852.25;5002091;28;21209;-75
2021/12/15 02:58:33;;;;;;;61.25;22.85;;;;;;;8.05;96.14;102856.69;5004386;28;20088;-75
2021/12/15 03:01:05;;;;;;;59.70;23.30;;;;;;;8.06;96.29;102852.13;5006879;28;20030;-76
2021/12/15 03:06:23;;;;;;;54.20;21.38;;;;;;;8.06;96.03;102855.72;5001395;28;20156;-76
2021/12/15 03:09:08;;;;;;;58.05;22.38;;;;;;;8.07;96.19;102854.81;4997463;28;20026;-76
2021/12/15 03:17:02;;;;;;;57.92;21.58;;;;;;;8.02;96.33;102840.53;4995154;28;20037;-76
2021/12/15 03:19:27;;;;;;;60.75;22.02;;;;;;;8.04;96.06;102848.59;4998267;28;20442;-73
2021/12/15 03:21:52;;;;;;;63.03;23.50;;;;;;;8.03;95.96;102842.28;4998482;28;20029;-77
2021/12/15 03:24:21;;;;;;;53.47;21.77;;;;;;;8.05;96.21;102847.66;5004750;28;20109;-76
2021/12/15 03:26:57;;;;;;;62.22;23.40;;;;;;;8.05;95.97;102845.84;5006344;28;20449;-73
2021/12/15 03:37:46;;;;;;;53.45;21.05;;;;;;;8.05;96.04;102840.41;4996951;28;20033;-75
2021/12/15 03:40:19;;;;;;;52.67;21.70;;;;;;;8.06;96.02;102841.28;4994728;28;20065;-76
2021/12/15 03:42:57;;;;;;;55.45;20.30;;;;;;;8.06;96.52;102835.88;5003025;28;20033;-78
2021/12/15 03:45:37;;;;;;;60.85;21.10;;;;;;;8.02;96.12;102839.59;5007170;28;20026;-76
2021/12/15 03:48:07;;;;;;;52.80;20.92;;;;;;;8.04;96.29;102845.88;4997994;28;20021;-76
2021/12/15 03:50:32;;;;;;;58.30;23.10;;;;;;;8.03;96.30;102849.53;4996142;28;20076;-76
2021/12/15 03:52:58;;;;;;;51.50;19.60;;;;;;;8.06;96.30;102860.28;5002733;28;20014;-78
2021/12/15 03:55:28;;;;;;;54.38;22.92;;;;;;;8.01;96.27;102852.28;5007748;28;20037;-79
2021/12/15 03:57:54;;;;;;;55.60;20.85;;;;;;;8.06;96.29;102872.00;5001929;28;20116;-75
2021/12/15 04:00:21;;;;;;;55.17;22.77;;;;;;;8.06;96.49;102866.56;5004402;28;20030;-78
2021/12/15 04:02:48;;;;;;;57.47;21.63;;;;;;;8.08;96.51;102864.72;4990373;28;20026;-76
2021/12/15 04:05:16;;;;;;;53.72;19.85;;;;;;;8.10;96.19;102870.97;4995598;28;20034;-74
2021/12/15 04:07:43;;;;;;;55.70;21.98;;;;;;;8.10;96.19;102872.81;4990810;28;20030;-78
2021/12/15 04:10:12;;;;;;;52.28;19.63;;;;;;;8.09;96.34;102871.03;4999693;28;20101;-76
2021/12/15 04:12:37;;;;;;;52.20;20.58;;;;;;;8.09;96.21;102869.22;4997479;28;20024;-77
2021/12/15 04:15:25;;;;;;;55.90;21.63;;;;;;;8.10;96.40;102870.09;5003485;28;20105;-74
2021/12/15 04:17:59;;;;;;;54.13;21.55;;;;;;;8.11;96.20;102870.06;4995927;28;20172;-78
2021/12/15 04:20:30;;;;;;;49.58;20.83;;;;;;;8.10;96.37;102864.66;4989862;28;20338;-76
2021/12/15 04:22:58;;;;;;;52.30;20.05;;;;;;;8.11;96.06;102869.16;5002836;28;20702;-76
2021/12/15 04:25:26;;;;;;;47.97;20.52;;;;;;;8.13;96.39;102876.31;4998302;28;20052;-77
2021/12/15 04:28:15;;;;;;;52.65;20.80;;;;;;;8.14;95.84;102875.38;5006834;28;20026;-76
2021/12/15 04:30:45;;;;;;;45.42;18.42;;;;;;;8.14;96.22;102874.50;5000183;28;20036;-76
2021/12/15 04:33:19;;;;;;;48.58;20.75;;;;;;;8.13;96.21;102878.16;4997234;28;20564;-76
2021/12/15 04:35:46;;;;;;;52.28;20.67;;;;;;;8.13;96.38;102875.44;4991229;28;20455;-77
2021/12/15 04:38:13;;;;;;;52.45;20.67;;;;;;;8.14;96.41;102885.34;5002545;28;20061;-76
2021/12/15 04:40:39;;;;;;;52.88;19.60;;;;;;;8.14;96.45;102883.50;4994904;28;20029;-74
2021/12/15 04:43:04;;;;;;;56.63;22.08;;;;;;;8.14;96.10;102886.22;5002708;28;20168;-77
2021/12/15 04:45:30;;;;;;;51.53;20.45;;;;;;;8.14;96.09;102883.50;4992044;28;20100;-74
2021/12/15 04:47:57;;;;;;;51.35;19.60;;;;;;;8.13;96.14;102881.75;4994823;28;20364;-74
2021/12/15 04:50:27;;;;;;;50.78;21.15;;;;;;;8.14;95.86;102891.66;5000372;28;20367;-73
2021/12/15 04:52:53;;;;;;;50.53;19.42;;;;;;;8.15;95.97;102885.28;5002898;28;20034;-76
2021/12/15 04:55:20;;;;;;;55.10;20.35;;;;;;;8.15;95.97;102885.28;4990986;28;20038;-76
2021/12/15 04:57:46;;;;;;;51.00;20.00;;;;;;;8.16;96.46;102889.81;4993033;28;20098;-74
2021/12/15 05:00:18;;;;;;;53.85;20.42;;;;;;;8.15;96.14;102892.53;4992541;28;20469;-76
2021/12/15 05:02:43;;;;;;;54.22;17.92;;;;;;;8.16;95.82;102897.03;5028568;28;20490;-78
2021/12/15 05:05:10;;;;;;;54.22;21.55;;;;;;;8.17;96.20;102898.81;4993866;28;20033;-73
2021/12/15 05:07:36;;;;;;;50.25;19.98;;;;;;;8.13;95.99;102889.88;5005467;28;20033;-76
2021/12/15 05:10:05;;;;;;;48.08;19.48;;;;;;;8.14;96.21;102888.94;4999428;28;20048;-76
2021/12/15 05:12:30;;;;;;;47.13;19.88;;;;;;;8.16;95.92;102900.66;4995512;28;20113;-77
2021/12/15 05:14:55;;;;;;;50.08;19.92;;;;;;;8.17;95.98;102901.53;4996024;28;20165;-76
2021/12/15 05:17:21;;;;;;;49.10;19.05;;;;;;;8.16;96.08;102892.50;4998581;28;20110;-77
2021/12/15 05:19:47;;;;;;;49.83;19.45;;;;;;;8.15;96.32;102895.25;4991134;28;20030;-76
2021/12/15 05:22:14;;;;;;;53.72;20.60;;;;;;;8.16;96.34;102906.06;5002786;28;20030;-74
2021/12/15 05:24:42;;;;;;;41.90;17.50;;;;;;;8.17;95.89;102905.13;5001169;28;20382;-78
2021/12/15 05:27:13;;;;;;;47.42;19.73;;;;;;;8.16;95.93;102900.66;4990360;28;20382;-77
2021/12/15 05:29:40;;;;;;;47.35;20.15;;;;;;;8.18;96.26;102906.00;4993881;28;20034;-76
2021/12/15 05:32:06;;;;;;;52.97;20.38;;;;;;;8.19;95.70;102908.66;4999323;28;20449;-76
2021/12/15 05:34:32;;;;;;;51.25;18.95;;;;;;;8.17;96.34;102904.25;5004594;28;20099;-73
2021/12/15 05:36:58;;;;;;;50.67;20.45;;;;;;;8.16;96.34;102911.50;4992756;28;20030;-77
2021/12/15 05:39:25;;;;;;;49.05;18.90;;;;;;;8.17;95.75;102906.94;4994023;28;20085;-73
2021/12/15 05:41:52;;;;;;;52.10;20.52;;;;;;;8.16;95.87;102903.34;5005665;28;20018;-76
2021/12/15 05:44:17;;;;;;;51.55;19.08;;;;;;;8.16;95.88;102918.75;4999652;28;20080;-75
2021/12/15 05:46:43;;;;;;;45.85;18.45;;;;;;;8.17;96.11;102906.94;4998121;28;20033;-77
2021/12/15 05:49:08;;;;;;;47.72;18.83;;;;;;;8.17;96.17;102909.66;4990480;28;20034;-76
2021/12/15 05:51:34;;;;;;;51.92;20.35;;;;;;;8.16;95.69;102908.78;4995176;28;20038;-74
2021/12/15 05:54:00;;;;;;;50.47;18.85;;;;;;;8.15;96.04;102908.81;4991931;28;20033;-76
2021/12/15 05:56:25;;;;;;;53.50;20.15;;;;;;;8.16;95.96;102906.06;4998371;28;20025;-76
2021/12/15 05:58:51;;;;;;;48.35;18.58;;;;;;;8.16;96.10;102907.91;4997493;28;20058;-76
2021/12/15 06:01:17;;;;;;;49.38;18.67;;;;;;;8.18;96.03;102908.72;4990690;28;20386;-74
2021/12/15 06:03:44;;;;;;;48.33;19.40;;;;;;;8.16;95.88;102908.78;4998473;28;20026;-76
2021/12/15 06:06:09;;;;;;;50.90;18.90;;;;;;;8.18;96.15;102916.84;4989550;28;20068;-76
2021/12/15 06:08:35;;;;;;;54.03;20.65;;;;;;;8.17;96.09;102906.94;4997403;28;20062;-76
2021/12/15 06:11:00;;;;;;;46.40;20.48;;;;;;;8.15;96.03;102906.09;4995164;28;20029;-78
2021/12/15 06:13:27;;;;;;;52.92;18.63;;;;;;;8.18;95.90;102916.84;4995197;28;20097;-78
2021/12/15 06:15:55;;;;;;;58.38;21.20;;;;;;;8.17;96.04;102920.50;5004128;28;20026;-77
2021/12/15 06:18:22;;;;;;;54.30;20.50;;;;;;;8.18;96.10;102922.28;4993541;28;20069;-77
2021/12/15 06:20:50;;;;;;;53.78;20.92;;;;;;;8.17;95.77;102929.53;4992310;28;20563;-74
2021/12/15 06:23:20;;;;;;;54.22;19.60;;;;;;;8.18;96.11;102922.28;5005211;28;20029;-76
2021/12/15 06:26:08;;;;;;;49.30;20.77;;;;;;;8.20;95.89;102925.81;5009894;28;20096;-77
2021/12/15 06:28:36;;;;;;;51.28;19.15;;;;;;;8.19;96.37;102929.47;5005111;28;20114;-75
2021/12/15 06:31:06;;;;;;;59.15;20.20;;;;;;;8.18;96.27;102931.28;5003366;28;20469;-76
2021/12/15 06:33:31;;;;;;;52.88;20.13;;;;;;;8.19;96.25;102929.47;5008986;28;20022;-76
2021/12/15 06:35:59;;;;;;;57.35;21.83;;;;;;;8.17;96.21;102928.63;4996338;28;20088;-76
2021/12/15 06:38:34;;;;;;;60.10;20.77;;;;;;;8.19;96.18;102938.50;5007031;28;20049;-76
2021/12/15 06:41:00;;;;;;;61.65;20.42;;;;;;;8.19;96.23;102933.06;5037438;28;20049;-77
2021/12/15 06:43:26;;;;;;;60.92;20.38;;;;;;;8.21;96.02;102935.75;5008921;28;20532;-75
2021/12/15 06:46:08;;;;;;;48.22;19.30;;;;;;;8.19;96.15;102937.59;5002089;28;20022;-78
2021/12/15 06:59:29;;;;;;;55.90;19.40;;;;;;;8.22;96.13;102942.06;5006015;28;20088;-74
2021/12/15 07:01:54;;;;;;;51.58;19.73;;;;;;;8.19;95.92;102938.50;5030929;28;20113;-73
2021/12/15 07:04:21;;;;;;;51.67;20.33;;;;;;;8.22;96.16;102947.47;5007811;28;20038;-74
2021/12/15 07:06:48;;;;;;;60.55;21.83;;;;;;;8.20;96.27;102944.78;5008035;28;20014;-76
2021/12/15 07:09:14;;;;;;;56.63;21.80;;;;;;;8.20;96.16;102947.50;4997161;28;20126;-76
2021/12/15 07:11:40;;;;;;;61.05;21.27;;;;;;;8.21;96.38;102957.44;5005079;28;20521;-76
2021/12/15 07:14:05;;;;;;;56.50;21.83;;;;;;;8.19;96.23;102956.59;5008358;28;20026;-76
2021/12/15 07:16:33;;;;;;;59.10;22.52;;;;;;;8.20;96.42;102958.34;5007352;28;20548;-78
2021/12/15 07:21:53;;;;;;;62.67;22.65;;;;;;;8.23;96.42;102960.09;5009967;28;20572;-75
2021/12/15 07:24:20;;;;;;;64.70;22.10;;;;;;;8.24;96.01;102964.59;4995900;28;20072;-76
2021/12/15 07:26:45;;;;;;;59.30;20.77;;;;;;;8.23;96.52;102965.53;5006886;28;20428;-78
2021/12/15 07:29:11;;;;;;;63.78;21.88;;;;;;;8.21;95.98;102954.72;5003468;28;20105;-78
2021/12/15 07:31:36;;;;;;;62.55;21.60;;;;;;;8.24;96.08;102965.47;5006555;28;20064;-78
2021/12/15 07:34:03;;;;;;;61.00;21.63;;;;;;;8.24;96.49;102961.88;5006761;28;20091;-76
2021/12/15 07:36:28;;;;;;;61.60;22.35;;;;;;;8.21;96.33;102957.44;4997465;28;20037;-76
2021/12/15 07:38:55;;;;;;;64.22;21.73;;;;;;;8.24;96.37;102970.91;5009916;28;20041;-74
2021/12/15 07:41:37;;;;;;;56.78;19.85;;;;;;;8.24;96.42;102976.31;5006056;28;20481;-77
2021/12/15 07:44:04;;;;;;;57.17;20.00;;;;;;;8.25;96.55;102972.66;5007921;28;20508;-75
2021/12/15 07:46:30;;;;;;;66.22;21.27;;;;;;;8.25;96.18;102966.34;5004561;28;20056;-76
2021/12/15 07:48:56;;;;;;;66.25;21.23;;;;;;;8.25;96.02;102972.66;5009546;28;20032;-74
2021/12/15 07:51:22;;;;;;;66.53;22.25;;;;;;;8.25;96.62;102971.78;5009437;28;20057;-78
2021/12/15 07:53:47;;;;;;;64.45;22.10;;;;;;;8.23;96.50;102963.69;5007129;28;20026;-78
2021/12/15 07:56:14;;;;;;;66.68;24.13;;;;;;;8.25;96.09;102972.66;5006299;28;20061;-78
2021/12/15 07:58:39;;;;;;;64.93;22.88;;;;;;;8.25;96.36;102975.38;5007396;28;20104;-74
2021/12/15 08:01:05;;;;;;;63.33;22.17;;;;;;;8.26;96.24;102976.28;4996362;28;20116;-75
2021/12/15 08:03:34;;;;;;;62.15;21.27;;;;;;;8.27;96.68;102976.25;5012916;28;20112;-76
2021/12/15 08:06:00;;;;;;;66.47;21.85;;;;;;;8.27;96.48;102976.25;5006963;28;20545;-76
2021/12/15 08:08:26;;;;;;;64.90;23.02;;;;;;;8.28;96.52;102978.00;5007373;28;20121;-78
2021/12/15 08:10:56;;;;;;;66.55;21.77;;;;;;;8.29;96.34;102987.03;5008556;28;20144;-74
2021/12/15 08:13:21;;;;;;;65.38;22.90;;;;;;;8.29;96.09;102990.63;5007453;28;20112;-75
2021/12/15 08:15:47;;;;;;;64.90;23.23;;;;;;;8.30;96.21;102988.81;5004535;28;20449;-77
2021/12/15 08:18:12;;;;;;;75.20;23.35;;;;;;;8.28;96.57;102991.56;5008743;28;20354;-76
2021/12/15 08:20:38;;;;;;;66.28;22.73;;;;;;;8.29;96.45;102987.91;5008355;28;20061;-76
2021/12/15 08:23:05;;;;;;;70.68;24.15;;;;;;;8.31;96.44;102990.59;5003401;28;20165;-74
2021/12/15 08:25:32;;;;;;;66.78;23.55;;;;;;;8.31;96.25;102985.19;4997754;28;20041;-78
2021/12/15 08:27:58;;;;;;;72.30;24.27;;;;;;;8.32;96.29;102990.56;5007457;28;20104;-78
2021/12/15 08:30:27;;;;;;;67.47;23.42;;;;;;;8.33;96.74;102991.44;5004505;28;20037;-75
2021/12/15 08:32:57;;;;;;;71.40;22.83;;;;;;;8.35;96.41;103001.31;4992633;28;20017;-77
2021/12/15 08:35:26;;;;;;;74.40;24.45;;;;;;;8.33;96.52;102986.03;5008904;28;20030;-74
2021/12/15 08:37:52;;;;;;;73.75;24.85;;;;;;;8.36;96.46;102991.38;4998462;28;20163;-76
2021/12/15 08:40:20;;;;;;;72.68;25.67;;;;;;;8.36;96.20;102992.28;5001834;28;20037;-78
2021/12/15 08:42:46;;;;;;;64.97;22.35;;;;;;;8.37;96.08;102998.59;4997540;28;20487;-75
2021/12/15 08:45:13;;;;;;;66.75;23.35;;;;;;;8.40;96.34;102999.41;5032448;28;20045;-77
2021/12/15 08:47:39;;;;;;;64.50;22.65;;;;;;;8.40;96.15;103001.22;5006593;28;20026;-74
2021/12/15 08:50:08;;;;;;;78.38;25.58;;;;;;;8.42;96.18;102989.38;5004845;28;20112;-77
2021/12/15 08:52:34;;;;;;;64.60;23.48;;;;;;;8.43;96.12;102991.16;5008436;28;20050;-76
2021/12/15 08:55:01;;;;;;;65.35;23.63;;;;;;;8.43;96.30;102995.69;5003925;28;20096;-76
2021/12/15 08:57:26;;;;;;;69.68;25.30;;;;;;;8.45;95.94;102990.25;5006444;28;20474;-76
2021/12/15 08:59:51;;;;;;;67.07;24.17;;;;;;;8.49;96.28;103000.97;5008861;28;20128;-78
2021/12/15 09:02:17;;;;;;;69.88;23.48;;;;;;;8.50;96.06;103001.84;5006261;28;20038;-78
2021/12/15 09:04:42;;;;;;;69.97;24.08;;;;;;;8.49;96.25;102998.25;5006840;28;20132;-74
2021/12/15 09:07:08;;;;;;;67.32;24.15;;;;;;;8.53;96.27;103001.75;5007725;28;20029;-78
2021/12/15 09:09:33;;;;;;;69.40;24.77;;;;;;;8.54;95.82;103007.16;5006905;28;20034;-74
2021/12/15 09:12:00;;;;;;;70.05;25.15;;;;;;;8.55;96.37;103010.75;5007282;28;20441;-78
2021/12/15 09:14:25;;;;;;;69.35;26.17;;;;;;;8.57;96.13;103007.03;5006356;28;20112;-76
2021/12/15 09:16:53;;;;;;;73.40;24.25;;;;;;;8.57;96.13;103009.75;5005913;28;20142;-74
2021/12/15 09:19:18;;;;;;;65.15;23.73;;;;;;;8.60;96.27;103019.63;5007722;28;20029;-74
2021/12/15 09:21:44;;;;;;;67.78;23.75;;;;;;;8.61;95.93;103008.72;5007626;28;20060;-77
2021/12/15 09:24:13;;;;;;;63.97;23.90;;;;;;;8.62;96.08;103017.75;4995237;28;20053;-74
2021/12/15 09:26:39;;;;;;;71.20;26.92;;;;;;;8.65;96.17;103014.97;4996634;28;20065;-74
2021/12/15 09:29:05;;;;;;;65.38;24.90;;;;;;;8.66;95.57;103028.47;5009585;28;20026;-76
2021/12/15 09:31:32;;;;;;;71.70;25.63;;;;;;;8.69;95.60;103030.22;5006923;28;20022;-74
2021/12/15 09:33:59;;;;;;;71.20;25.50;;;;;;;8.70;96.04;103029.28;5010294;28;20393;-76
2021/12/15 09:36:26;;;;;;;62.95;23.23;;;;;;;8.71;95.78;103032.88;5010053;28;20049;-78
2021/12/15 09:38:54;;;;;;;71.88;25.88;;;;;;;8.73;96.00;103031.03;5012073;28;20030;-77
2021/12/15 09:41:23;;;;;;;63.08;25.00;;;;;;;8.73;95.96;103031.91;5000082;28;20037;-76
2021/12/15 09:43:51;;;;;;;66.13;25.88;;;;;;;8.77;95.82;103033.59;5004084;28;20029;-77
2021/12/15 09:57:29;;;;;;;61.50;25.55;;;;;;;8.97;95.26;103032.09;5010625;28;20049;-74
2021/12/15 10:02:53;;;;;;;69.30;24.38;;;;;;;9.05;95.08;103038.19;5010645;28;20044;-76
2021/12/15 10:05:38;;;;;;;67.32;24.42;;;;;;;9.06;94.93;103035.44;5010266;28;20022;-74
2021/12/15 10:19:19;;;;;;;66.43;25.95;;;;;;;9.28;94.48;103038.38;5010623;28;20130;-75
2021/12/15 10:22:03;;;;;;;62.03;25.95;;;;;;;9.31;94.63;103038.25;5002355;28;20029;-78
2021/12/15 10:24:43;;;;;;;63.78;25.08;;;;;;;9.35;94.70;103041.75;5008735;28;20075;-77
2021/12/15 10:27:08;;;;;;;61.58;26.98;;;;;;;9.35;94.17;103042.66;5000074;28;20430;-75
2021/12/15 10:29:34;;;;;;;66.05;26.23;;;;;;;9.35;94.48;103031.78;5005797;28;20768;-78
2021/12/15 10:32:05;;;;;;;61.70;24.98;;;;;;;9.42;93.93;103044.25;5030929;28;20021;-74
2021/12/15 10:34:31;;;;;;;57.75;24.95;;;;;;;9.41;93.76;103039.72;5004000;28;20121;-75
2021/12/15 10:36:57;;;;;;;62.38;26.17;;;;;;;9.44;93.60;103039.63;5033152;28;20022;-75
2021/12/15 10:39:24;;;;;;;59.55;26.02;;;;;;;9.47;94.16;103029.63;5009194;28;20485;-78
2021/12/15 10:41:53;;;;;;;56.55;24.58;;;;;;;9.49;94.11;103027.72;5008011;28;20825;-76
2021/12/15 10:44:23;;;;;;;59.78;25.80;;;;;;;9.53;93.73;103035.72;5010207;28;20133;-76
2021/12/15 10:46:58;;;;;;;58.63;25.48;;;;;;;9.58;93.49;103041.00;5001868;28;20053;-78
2021/12/15 10:49:29;;;;;;;54.42;24.80;;;;;;;9.57;93.33;103036.53;5009148;28;20398;-76
2021/12/15 10:51:59;;;;;;;58.40;24.67;;;;;;;9.62;93.68;103043.59;5008681;28;20033;-77
2021/12/15 10:54:34;;;;;;;57.17;25.58;;;;;;;9.54;93.36;103037.50;4996366;28;20026;-78
2021/12/15 10:57:09;;;;;;;60.72;25.33;;;;;;;9.62;93.72;103050.84;5007407;28;20486;-79
2021/12/15 10:59:40;;;;;;;59.53;25.92;;;;;;;9.64;93.75;103051.66;5005024;28;20049;-74
2021/12/15 11:02:10;;;;;;;56.75;25.63;;;;;;;9.64;93.16;103055.28;5006046;28;20026;-76
2021/12/15 11:04:38;;;;;;;57.85;26.23;;;;;;;9.66;93.65;103047.09;5009132;28;20018;-77
2021/12/15 11:07:03;;;;;;;63.60;25.95;;;;;;;9.70;93.28;103046.94;5010242;28;20025;-78
2021/12/15 11:09:38;;;;;;;58.95;25.48;;;;;;;9.70;93.24;103037.91;5009610;28;20087;-77
2021/12/15 11:12:12;;;;;;;58.40;25.95;;;;;;;9.75;93.06;103044.06;5040585;28;20022;-78
2021/12/15 11:14:40;;;;;;;62.10;26.42;;;;;;;9.76;93.42;103039.53;5008556;28;20030;-73
2021/12/15 11:17:18;;;;;;;56.05;25.95;;;;;;;9.76;93.31;103044.94;5008284;28;20026;-74
2021/12/15 11:19:50;;;;;;;58.00;27.00;;;;;;;9.74;93.08;103041.38;5009905;28;20049;-76
2021/12/15 11:22:34;;;;;;;57.50;24.95;;;;;;;9.79;93.63;103036.69;5008005;28;20084;-78
2021/12/15 11:25:01;;;;;;;62.92;27.80;;;;;;;9.79;93.34;103039.38;5020304;28;20038;-73
2021/12/15 11:27:27;;;;;;;68.03;29.17;;;;;;;9.80;92.80;103036.66;5004819;28;20026;-76
2021/12/15 11:29:53;;;;;;;58.08;27.27;;;;;;;9.81;92.88;103038.41;5006853;28;20030;-76
2021/12/15 11:32:38;;;;;;;58.13;28.23;;;;;;;9.86;93.20;103043.69;5004407;28;20389;-76
2021/12/15 11:35:17;;;;;;;62.60;26.20;;;;;;;9.87;93.21;103038.19;4994354;28;20022;-77
2021/12/15 11:38:14;;;;;;;59.28;28.00;;;;;;;9.89;92.77;103036.34;5007376;28;20033;-74
2021/12/15 11:40:45;;;;;;;62.63;27.60;;;;;;;9.90;92.80;103035.38;4995636;28;20504;-76
2021/12/15 11:43:26;;;;;;;61.45;27.17;;;;;;;9.92;92.32;103033.47;4999151;28;20041;-74
2021/12/15 11:45:52;;;;;;;64.30;28.23;;;;;;;9.92;92.19;103027.16;5000308;28;20053;-77
2021/12/15 11:48:24;;;;;;;59.22;28.05;;;;;;;9.92;92.34;103029.88;4994364;28;20027;-77
2021/12/15 11:50:52;;;;;;;56.83;27.73;;;;;;;9.96;91.93;103034.28;5019648;28;20061;-77
2021/12/15 11:53:37;;;;;;;54.05;26.33;;;;;;;10.01;92.40;103031.41;4990083;28;20056;-77
2021/12/15 11:56:16;;;;;;;54.78;26.90;;;;;;;10.01;91.75;103034.13;4987784;28;20034;-74
2021/12/15 11:58:42;;;;;;;59.42;26.77;;;;;;;9.98;91.58;103026.97;4988620;28;20065;-77
2021/12/15 12:01:08;;;;;;;52.28;25.20;;;;;;;10.01;91.50;103017.78;4995448;28;20041;-77
2021/12/15 12:03:37;;;;;;;48.88;24.23;;;;;;;9.98;91.35;103024.25;5020596;28;20391;-75
2021/12/15 12:06:03;;;;;;;48.17;24.63;;;;;;;9.97;91.61;103028.78;4988322;28;20380;-75
2021/12/15 12:08:29;;;;;;;52.38;25.10;;;;;;;9.97;91.72;103031.50;4989810;28;20032;-73
2021/12/15 12:10:56;;;;;;;55.35;25.73;;;;;;;9.98;91.42;103021.53;4990252;28;20390;-76
2021/12/15 12:13:29;;;;;;;49.58;25.38;;;;;;;9.99;91.53;103014.25;5021968;28;20478;-74
2021/12/15 12:16:04;;;;;;;49.88;25.45;;;;;;;10.03;92.08;103016.81;5002505;28;20022;-76
2021/12/15 12:18:31;;;;;;;53.40;26.63;;;;;;;10.03;91.56;103005.06;4990128;28;20439;-77
2021/12/15 12:21:01;;;;;;;51.92;23.88;;;;;;;10.06;91.69;103010.34;4989435;28;20467;-76
2021/12/15 12:23:29;;;;;;;49.30;24.60;;;;;;;10.11;91.75;103020.13;4988717;28;20057;-75
2021/12/15 12:26:01;;;;;;;51.10;25.17;;;;;;;10.15;91.76;103016.34;4987386;28;20033;-75
2021/12/15 12:28:41;;;;;;;51.35;25.45;;;;;;;10.18;91.35;103008.09;4997658;28;20402;-73
2021/12/15 12:31:14;;;;;;;45.85;23.55;;;;;;;10.20;91.35;103008.91;4991053;28;20474;-76
2021/12/15 12:33:39;;;;;;;47.45;24.63;;;;;;;10.16;90.95;103000.91;4989259;28;20108;-75
2021/12/15 12:36:07;;;;;;;48.88;24.35;;;;;;;10.17;91.13;103002.72;5018990;28;20125;-74